West End, Illinois
Current Conditions -  °F | °C
As of 9:15 PM on Friday 31 Oct 2014 (Local Time) from KHSB Reporting Station
Clear Clear  
Wind Chill: 31°   Ceiling: Unl
Heat Index: 39°   Visibility: 10mi
Dew Point: 23°   Wind: 16mph
Humidity: 51%   Direction: 340°NNW
Pressure: 30.3"   Gusts: 26mph
Location:  37.8635°N, 88.7619°W
Report Text: KHSB 010215Z AUTO 34014G23KT 10SM CLR 04/M05 A3030 RMK AO2 T00411052
Loading
Personal Weather Stations






























Interactive Weather Map
Tropical Storm Tracking
New forecast layout! Learn more

10-Day Weather Forecast

Advertisements
Track Severe Weather on mobile